Time;durP1;ratioP1;P1;durP2;ratioP2;P2;SDS_P1;SDS_P2;PMS_P1;PMS_P2;Temp;Humidity;BMP_temperature;BMP_pressure;BME280_temperature;BME280_humidity;BME280_pressure;Samples;Min_cycle;Max_cycle;Signal;HPM_P1;HPM_P2
2022/06/07 00:02:24;;;;;;;5.07;1.90;;;21.70;84.20;;;;;;4936508;29;20491;-70
2022/06/07 00:04:54;;;;;;;3.13;2.20;;;21.70;84.30;;;;;;4940309;29;20444;-71
2022/06/07 00:07:24;;;;;;;3.37;2.27;;;21.70;84.30;;;;;;4954881;28;20437;-70
2022/06/07 00:09:53;;;;;;;2.57;2.00;;;21.60;84.30;;;;;;4943391;29;20799;-70
2022/06/07 00:12:22;;;;;;;2.90;1.90;;;21.60;84.30;;;;;;4945913;28;20466;-70
2022/06/07 00:14:48;;;;;;;2.07;1.97;;;21.60;84.30;;;;;;4955361;29;20513;-71
2022/06/07 00:17:17;;;;;;;4.67;2.10;;;21.60;84.40;;;;;;4950428;28;20439;-71
2022/06/07 00:19:44;;;;;;;2.30;2.07;;;21.60;84.40;;;;;;4961189;28;20422;-70
2022/06/07 00:22:12;;;;;;;4.20;1.93;;;21.60;84.40;;;;;;4952474;29;20489;-70
2022/06/07 00:24:38;;;;;;;2.27;2.10;;;21.60;84.40;;;;;;4967664;28;20469;-70
2022/06/07 00:27:05;;;;;;;4.10;2.10;;;21.50;84.30;;;;;;4969875;28;20429;-71
2022/06/07 00:29:35;;;;;;;2.70;2.13;;;21.50;84.30;;;;;;4969371;28;20426;-71
2022/06/07 00:32:05;;;;;;;2.10;1.90;;;21.50;84.30;;;;;;4969763;28;20488;-70
2022/06/07 00:34:34;;;;;;;2.30;1.80;;;21.50;84.40;;;;;;4968965;28;20505;-70
2022/06/07 00:37:00;;;;;;;2.07;1.87;;;21.50;84.40;;;;;;4953826;29;20874;-71
2022/06/07 00:39:26;;;;;;;1.97;1.70;;;21.50;84.50;;;;;;4953134;29;20407;-70
2022/06/07 00:41:53;;;;;;;1.97;1.50;;;21.50;85.20;;;;;;4953253;29;20532;-70
2022/06/07 00:44:24;;;;;;;2.70;2.50;;;21.50;84.40;;;;;;4969207;28;20917;-70
2022/06/07 00:47:18;;;;;;;3.00;2.33;;;21.40;84.40;;;;;;4953793;29;20430;-70
2022/06/07 00:50:04;;;;;;;2.17;1.67;;;21.40;84.40;;;;;;4969572;28;20901;-70
2022/06/07 00:52:36;;;;;;;3.63;1.90;;;21.40;84.40;;;;;;4969161;28;20438;-70
2022/06/07 00:55:04;;;;;;;2.10;1.90;;;21.40;84.40;;;;;;4924753;29;20976;-71
2022/06/07 00:57:42;;;;;;;2.83;1.93;;;21.40;84.50;;;;;;4937961;29;20518;-70
2022/06/07 01:00:16;;;;;;;2.20;2.00;;;21.30;84.40;;;;;;4969018;28;20429;-70
2022/06/07 01:02:46;;;;;;;1.90;1.80;;;21.30;84.40;;;;;;4968841;28;20432;-71
2022/06/07 01:05:12;;;;;;;2.33;1.80;;;21.30;84.40;;;;;;4969272;28;20521;-70
2022/06/07 01:10:46;;;;;;;1.93;1.73;;;21.30;84.50;;;;;;4953394;29;20472;-70
2022/06/07 01:13:22;;;;;;;2.60;1.87;;;21.30;84.50;;;;;;4968211;28;20492;-70
2022/06/07 01:15:55;;;;;;;2.03;1.83;;;21.30;84.60;;;;;;4918741;29;20529;-70
2022/06/07 01:18:27;;;;;;;2.33;2.00;;;21.20;84.50;;;;;;4950653;29;20464;-70
2022/06/07 01:21:32;;;;;;;2.10;1.93;;;21.20;84.50;;;;;;4953401;29;20453;-70
2022/06/07 01:24:02;;;;;;;1.80;1.70;;;21.20;84.60;;;;;;4898631;29;20546;-70
2022/06/07 01:26:41;;;;;;;2.40;2.20;;;21.20;84.60;;;;;;4964440;28;20500;-71
2022/06/07 01:29:08;;;;;;;3.37;1.70;;;21.20;84.60;;;;;;4968844;28;20425;-70
2022/06/07 01:31:37;;;;;;;2.07;1.80;;;21.10;84.50;;;;;;4953021;29;20458;-70
2022/06/07 01:34:04;;;;;;;2.77;2.00;;;21.10;84.50;;;;;;4968716;28;20575;-70
2022/06/07 01:36:30;;;;;;;2.70;2.00;;;21.10;84.50;;;;;;4953239;29;20426;-70
2022/06/07 01:41:57;;;;;;;2.43;2.10;;;21.10;84.50;;;;;;4945654;29;20537;-70
2022/06/07 01:44:39;;;;;;;1.93;1.57;;;21.10;84.50;;;;;;4967734;28;20471;-70
2022/06/07 01:47:10;;;;;;;3.43;1.77;;;21.10;84.60;;;;;;4952805;29;20445;-71
2022/06/07 01:49:40;;;;;;;2.77;1.70;;;21.10;84.60;;;;;;4968783;28;20429;-70
2022/06/07 01:52:08;;;;;;;1.90;1.60;;;21.10;84.60;;;;;;4949741;29;20501;-70
2022/06/07 01:54:38;;;;;;;2.40;2.20;;;21.00;84.50;;;;;;4928218;29;20473;-70
2022/06/07 01:57:08;;;;;;;2.30;1.90;;;21.00;84.50;;;;;;4952861;29;20460;-70
2022/06/07 01:59:40;;;;;;;3.30;2.17;;;21.00;84.50;;;;;;4952809;29;20528;-70
2022/06/07 02:02:11;;;;;;;1.83;1.73;;;21.00;84.50;;;;;;4953604;29;20866;-70
2022/06/07 02:04:42;;;;;;;2.47;2.10;;;21.00;84.50;;;;;;4949596;29;20840;-70
2022/06/07 02:07:10;;;;;;;2.90;2.17;;;20.90;85.20;;;;;;4965661;28;20404;-70
2022/06/07 02:09:37;;;;;;;2.40;2.20;;;20.90;84.40;;;;;;4927287;29;20445;-70
2022/06/07 02:12:11;;;;;;;2.83;2.17;;;20.90;84.40;;;;;;4968631;28;20501;-70
2022/06/07 02:14:39;;;;;;;3.67;2.27;;;20.90;84.40;;;;;;4955548;28;20486;-70
2022/06/07 02:17:08;;;;;;;2.53;2.33;;;20.90;84.40;;;;;;4968890;28;20408;-70
2022/06/07 02:19:44;;;;;;;2.20;2.00;;;20.90;84.40;;;;;;4953268;29;20456;-70
2022/06/07 02:22:10;;;;;;;2.97;2.20;;;20.90;84.40;;;;;;4951411;28;20487;-70
2022/06/07 02:24:40;;;;;;;2.13;2.03;;;20.80;84.30;;;;;;4939779;29;20454;-70
2022/06/07 02:27:14;;;;;;;2.87;2.17;;;20.80;84.20;;;;;;4933732;29;20430;-71
2022/06/07 02:29:47;;;;;;;2.13;2.00;;;20.80;84.30;;;;;;4949408;29;20420;-70
2022/06/07 02:32:21;;;;;;;2.80;2.37;;;20.80;84.30;;;;;;4943025;29;20446;-70
2022/06/07 02:34:53;;;;;;;2.00;1.80;;;20.80;84.30;;;;;;4968622;28;20447;-70
2022/06/07 02:37:22;;;;;;;1.80;1.67;;;20.80;84.30;;;;;;4972123;28;20431;-70
2022/06/07 02:39:50;;;;;;;2.33;1.47;;;20.80;84.70;;;;;;4972167;28;20400;-69
2022/06/07 02:42:17;;;;;;;1.83;1.73;;;20.80;84.40;;;;;;4952756;29;20489;-70
2022/06/07 02:44:46;;;;;;;2.60;2.10;;;20.80;84.40;;;;;;4955085;28;20451;-70
2022/06/07 02:47:15;;;;;;;3.97;2.40;;;20.70;84.30;;;;;;4932145;29;20601;-70
2022/06/07 02:49:49;;;;;;;2.30;2.10;;;20.70;84.40;;;;;;4936858;29;20471;-70
2022/06/07 02:52:15;;;;;;;2.20;1.90;;;20.70;84.40;;;;;;4936589;29;20432;-70
2022/06/07 02:54:50;;;;;;;3.20;2.00;;;20.70;84.50;;;;;;4951876;29;20465;-70
2022/06/07 02:57:19;;;;;;;4.00;2.10;;;20.70;84.50;;;;;;4936952;29;20500;-70
2022/06/07 02:59:49;;;;;;;2.00;1.80;;;20.70;84.50;;;;;;4936450;29;20498;-71
2022/06/07 03:02:18;;;;;;;3.90;2.30;;;20.70;84.60;;;;;;4936725;29;20809;-70
2022/06/07 03:04:46;;;;;;;2.60;1.80;;;20.60;84.50;;;;;;4955002;29;20421;-70
2022/06/07 03:07:13;;;;;;;2.30;2.10;;;20.60;84.50;;;;;;4955787;29;20499;-71
2022/06/07 03:09:40;;;;;;;3.20;2.20;;;20.60;84.50;;;;;;4954769;28;20857;-70
2022/06/07 03:12:06;;;;;;;3.10;1.77;;;20.60;84.60;;;;;;4954917;29;20451;-70
2022/06/07 03:14:39;;;;;;;2.27;2.07;;;20.60;84.60;;;;;;4956188;29;20491;-70
2022/06/07 03:17:06;;;;;;;2.23;2.03;;;20.60;84.60;;;;;;4941003;29;20453;-70
2022/06/07 03:19:37;;;;;;;3.17;1.80;;;20.60;84.60;;;;;;4936134;29;20438;-70
2022/06/07 03:22:07;;;;;;;2.30;2.10;;;20.50;84.50;;;;;;4954667;28;20460;-70
2022/06/07 03:24:37;;;;;;;2.50;2.17;;;20.50;84.60;;;;;;4955123;28;20946;-71
2022/06/07 03:27:04;;;;;;;2.57;2.37;;;20.50;84.60;;;;;;4971338;28;20918;-70
2022/06/07 03:29:33;;;;;;;1.90;1.80;;;20.50;84.60;;;;;;4970788;28;20483;-70
2022/06/07 03:32:01;;;;;;;3.00;1.60;;;20.50;84.60;;;;;;4955103;29;20499;-70
2022/06/07 03:34:29;;;;;;;3.23;2.00;;;20.50;84.60;;;;;;4971055;28;20544;-70
2022/06/07 03:36:58;;;;;;;2.87;2.17;;;20.50;84.60;;;;;;4953845;28;20443;-70
2022/06/07 03:39:24;;;;;;;2.07;1.87;;;20.40;84.50;;;;;;4955838;29;20421;-70
2022/06/07 03:41:59;;;;;;;3.50;2.00;;;20.40;84.60;;;;;;4955087;29;20472;-70
2022/06/07 03:44:30;;;;;;;2.70;2.00;;;20.40;84.60;;;;;;4970881;28;20441;-70
2022/06/07 03:47:18;;;;;;;4.20;1.90;;;20.40;84.60;;;;;;4970500;28;20424;-71
2022/06/07 03:49:53;;;;;;;2.10;1.83;;;20.40;84.60;;;;;;4954685;29;20428;-70
2022/06/07 03:52:21;;;;;;;4.40;2.20;;;20.40;84.70;;;;;;4970653;28;20475;-70
2022/06/07 03:54:49;;;;;;;2.00;1.77;;;20.40;84.70;;;;;;4951307;28;20470;-70
2022/06/07 03:57:18;;;;;;;3.47;1.90;;;20.40;84.70;;;;;;4935679;29;20407;-70
2022/06/07 03:59:49;;;;;;;3.17;1.83;;;20.30;84.60;;;;;;4949034;28;20843;-70
2022/06/07 04:02:15;;;;;;;2.50;1.93;;;20.30;84.60;;;;;;4955446;29;20464;-70
2022/06/07 04:04:41;;;;;;;2.37;2.10;;;20.30;84.60;;;;;;4970278;28;20971;-70
2022/06/07 04:09:57;;;;;;;2.77;1.93;;;20.30;84.70;;;;;;4955443;28;20486;-70
2022/06/07 04:12:31;;;;;;;2.87;2.00;;;20.30;84.70;;;;;;4954305;29;20412;-70
2022/06/07 04:15:00;;;;;;;2.80;2.00;;;20.30;84.70;;;;;;4940440;29;20478;-70
2022/06/07 04:17:26;;;;;;;3.30;1.87;;;20.20;84.60;;;;;;4954493;29;20480;-71
2022/06/07 04:20:06;;;;;;;2.40;1.90;;;20.20;84.60;;;;;;4939544;29;20447;-70
2022/06/07 04:22:32;;;;;;;3.93;2.00;;;20.20;84.70;;;;;;4950512;29;20460;-70
2022/06/07 04:25:06;;;;;;;3.10;2.50;;;20.20;84.70;;;;;;4969817;28;20427;-70
2022/06/07 04:27:36;;;;;;;3.77;2.00;;;20.20;84.70;;;;;;4969023;28;20472;-70
2022/06/07 04:30:13;;;;;;;2.70;2.30;;;20.20;84.70;;;;;;4953497;29;20535;-71
2022/06/07 04:32:50;;;;;;;4.40;2.37;;;20.20;84.80;;;;;;4950781;29;20535;-71
2022/06/07 04:35:28;;;;;;;3.20;2.03;;;20.20;84.80;;;;;;4935907;29;20461;-70
2022/06/07 04:38:01;;;;;;;2.20;2.00;;;20.20;84.80;;;;;;4952910;28;20924;-70
2022/06/07 04:40:34;;;;;;;3.30;1.90;;;20.20;84.90;;;;;;4954057;29;20524;-69
2022/06/07 04:43:01;;;;;;;1.83;1.73;;;20.20;84.90;;;;;;4946482;29;20454;-71
2022/06/07 04:45:31;;;;;;;2.13;1.90;;;20.10;84.70;;;;;;4947076;28;20456;-72
2022/06/07 04:48:10;;;;;;;2.37;1.80;;;20.10;84.80;;;;;;4945841;29;20467;-70
2022/06/07 04:50:47;;;;;;;2.97;2.00;;;20.10;84.80;;;;;;4959417;28;20443;-70
2022/06/07 04:53:17;;;;;;;3.00;2.00;;;20.10;84.90;;;;;;4939510;29;20555;-69
2022/06/07 04:55:43;;;;;;;3.23;2.47;;;20.10;84.90;;;;;;4950231;29;20544;-69
2022/06/07 04:58:12;;;;;;;2.80;2.27;;;20.10;84.90;;;;;;4936809;29;20786;-70
2022/06/07 05:00:43;;;;;;;3.57;1.97;;;20.10;85.00;;;;;;4952755;29;20460;-70
2022/06/07 05:03:09;;;;;;;3.37;2.10;;;20.10;85.00;;;;;;4954297;29;20429;-69
2022/06/07 05:05:41;;;;;;;2.70;2.10;;;20.10;85.00;;;;;;4953757;28;20538;-69
2022/06/07 05:08:18;;;;;;;4.10;2.37;;;20.10;85.00;;;;;;4949054;28;20444;-69
2022/06/07 05:10:46;;;;;;;3.17;2.03;;;20.10;85.10;;;;;;4966011;28;20435;-71
2022/06/07 05:13:17;;;;;;;4.50;2.03;;;20.00;85.10;;;;;;4968720;28;20428;-69
2022/06/07 05:15:57;;;;;;;4.40;2.50;;;20.00;85.20;;;;;;4953252;29;20547;-69
2022/06/07 05:18:26;;;;;;;3.60;2.33;;;20.00;85.20;;;;;;4934455;29;20446;-69
2022/06/07 05:20:56;;;;;;;2.53;2.00;;;20.00;85.20;;;;;;4950256;29;20520;-70
2022/06/07 05:23:22;;;;;;;5.00;2.27;;;20.00;85.30;;;;;;4918350;29;21002;-70
2022/06/07 05:26:18;;;;;;;2.40;2.00;;;20.00;86.10;;;;;;4942857;28;20493;-70
2022/06/07 05:28:44;;;;;;;3.60;2.40;;;20.00;85.30;;;;;;4949650;29;20496;-69
2022/06/07 05:31:12;;;;;;;4.00;2.57;;;20.00;85.30;;;;;;4952970;28;20519;-69
2022/06/07 05:33:44;;;;;;;4.43;2.50;;;20.00;85.30;;;;;;4949521;29;20488;-69
2022/06/07 05:36:10;;;;;;;3.13;2.30;;;20.00;85.30;;;;;;4968691;28;20439;-69
2022/06/07 05:38:41;;;;;;;3.03;2.00;;;19.90;85.20;;;;;;4949157;28;20439;-69
2022/06/07 05:41:25;;;;;;;4.17;1.90;;;19.90;85.10;;;;;;4946180;29;20556;-69
2022/06/07 05:43:59;;;;;;;3.50;2.40;;;19.90;85.10;;;;;;4954997;28;20922;-69
2022/06/07 05:46:33;;;;;;;3.00;2.30;;;19.90;85.10;;;;;;4968071;28;20480;-69
2022/06/07 05:49:10;;;;;;;2.33;1.80;;;19.90;85.10;;;;;;4968883;28;20807;-70
2022/06/07 05:51:54;;;;;;;5.20;2.13;;;19.90;85.10;;;;;;4953604;29;20505;-70
2022/06/07 05:54:23;;;;;;;3.90;2.03;;;19.90;85.10;;;;;;4952708;29;20841;-68
2022/06/07 05:56:53;;;;;;;2.67;2.27;;;19.90;85.10;;;;;;4953835;29;20421;-70
2022/06/07 05:59:19;;;;;;;2.60;2.37;;;19.90;85.10;;;;;;4968802;28;20902;-71
2022/06/07 06:01:48;;;;;;;6.17;2.57;;;19.90;85.20;;;;;;4968623;28;20435;-69
2022/06/07 06:04:16;;;;;;;2.37;2.00;;;19.80;85.10;;;;;;4952712;29;20827;-69
2022/06/07 06:06:53;;;;;;;2.40;2.07;;;19.80;85.10;;;;;;4968379;28;20427;-69
2022/06/07 06:12:07;;;;;;;3.90;2.23;;;19.80;85.10;;;;;;4972597;28;20977;-69
2022/06/07 06:14:41;;;;;;;4.23;2.43;;;19.80;85.20;;;;;;4955651;28;20475;-69
2022/06/07 06:17:16;;;;;;;3.97;2.43;;;19.80;85.20;;;;;;4956510;29;20473;-69
2022/06/07 06:19:48;;;;;;;2.90;2.20;;;19.80;85.20;;;;;;4971220;28;20965;-69
2022/06/07 06:22:15;;;;;;;3.40;1.90;;;19.80;85.30;;;;;;4955700;28;20551;-69
2022/06/07 06:24:47;;;;;;;4.30;2.30;;;19.80;85.30;;;;;;4956570;28;20487;-69
2022/06/07 06:27:18;;;;;;;3.43;2.20;;;19.80;85.30;;;;;;4988867;22;20504;-72
2022/06/07 06:29:46;;;;;;;4.60;2.70;;;19.80;85.40;;;;;;4961156;28;20950;-72
2022/06/07 06:32:14;;;;;;;3.30;2.13;;;19.80;85.30;;;;;;4939933;29;20486;-72
2022/06/07 06:34:45;;;;;;;2.60;2.40;;;19.80;85.30;;;;;;4940233;29;20488;-72
2022/06/07 06:37:16;;;;;;;4.67;2.50;;;19.80;85.40;;;;;;4955767;29;20849;-72
2022/06/07 06:39:47;;;;;;;4.50;2.60;;;19.80;85.30;;;;;;4974708;28;20919;-71
2022/06/07 06:42:14;;;;;;;4.07;2.60;;;19.80;85.40;;;;;;4947044;28;20534;-72
2022/06/07 06:45:00;;;;;;;2.83;2.53;;;19.80;85.40;;;;;;4945072;28;20477;-72
2022/06/07 06:47:26;;;;;;;4.07;2.13;;;19.80;85.40;;;;;;4943093;28;20531;-72
2022/06/07 06:49:52;;;;;;;3.73;2.37;;;19.80;85.40;;;;;;4958649;28;20440;-72
2022/06/07 06:52:22;;;;;;;3.57;2.33;;;19.80;85.40;;;;;;4927192;28;20495;-72
2022/06/07 06:54:49;;;;;;;2.73;2.50;;;19.80;85.40;;;;;;4926782;28;20821;-72
2022/06/07 06:57:23;;;;;;;4.50;2.57;;;19.80;85.40;;;;;;4958179;28;20418;-72
2022/06/07 06:59:53;;;;;;;3.70;2.47;;;19.80;85.30;;;;;;4942838;28;20789;-72
2022/06/07 07:02:23;;;;;;;3.07;2.27;;;19.80;85.30;;;;;;4958142;28;20443;-72
2022/06/07 07:04:57;;;;;;;5.83;2.40;;;19.80;85.40;;;;;;4956659;28;20418;-72
2022/06/07 07:07:24;;;;;;;3.80;1.90;;;19.80;85.30;;;;;;4940867;28;20462;-72
2022/06/07 07:09:53;;;;;;;2.90;2.40;;;19.80;85.30;;;;;;4973419;28;20927;-72
2022/06/07 07:12:22;;;;;;;4.77;2.37;;;19.80;85.50;;;;;;4940930;28;20505;-72
2022/06/07 07:14:55;;;;;;;4.43;2.57;;;19.80;85.40;;;;;;4941255;28;20477;-72
2022/06/07 07:17:26;;;;;;;4.60;2.40;;;19.80;85.40;;;;;;4956651;28;20913;-72
2022/06/07 07:19:55;;;;;;;3.60;2.33;;;19.80;85.40;;;;;;4941395;28;20435;-72
2022/06/07 07:22:22;;;;;;;3.10;2.40;;;19.80;85.40;;;;;;4957440;28;20412;-72
2022/06/07 07:24:50;;;;;;;3.40;2.30;;;19.80;85.40;;;;;;4959815;28;20450;-72
2022/06/07 07:27:21;;;;;;;3.03;2.47;;;19.80;85.40;;;;;;4977421;28;20431;-72
2022/06/07 07:29:47;;;;;;;3.73;2.40;;;19.80;85.40;;;;;;4938674;28;20468;-72
2022/06/07 07:32:21;;;;;;;4.13;2.20;;;19.80;85.40;;;;;;4954532;29;20804;-72
2022/06/07 07:34:55;;;;;;;4.60;2.40;;;19.80;85.40;;;;;;4938002;29;20506;-72
2022/06/07 07:37:23;;;;;;;3.80;2.67;;;19.80;85.30;;;;;;4952097;28;20442;-72
2022/06/07 07:39:54;;;;;;;5.03;2.20;;;19.90;85.40;;;;;;4960875;28;20435;-72
2022/06/07 07:42:24;;;;;;;3.43;2.30;;;19.90;85.40;;;;;;4950364;28;20715;-72
2022/06/07 07:45:02;;;;;;;3.00;2.40;;;19.90;85.40;;;;;;4958690;28;20915;-72
2022/06/07 07:47:31;;;;;;;2.80;2.13;;;19.90;85.50;;;;;;4957100;28;20428;-72
2022/06/07 07:49:57;;;;;;;2.83;2.20;;;19.90;85.40;;;;;;4926098;28;20452;-72
2022/06/07 07:52:23;;;;;;;3.60;2.17;;;19.90;85.60;;;;;;4946503;28;20462;-72
2022/06/07 07:54:58;;;;;;;3.10;2.20;;;19.90;85.50;;;;;;4958166;28;20569;-72
2022/06/07 07:57:24;;;;;;;3.53;2.70;;;20.00;85.70;;;;;;4957362;28;20439;-72
2022/06/07 07:59:53;;;;;;;3.50;2.00;;;20.00;85.70;;;;;;4941289;28;20500;-72
2022/06/07 08:02:22;;;;;;;2.80;2.00;;;20.00;85.80;;;;;;4942498;28;20868;-72
2022/06/07 08:04:55;;;;;;;9.23;2.63;;;20.00;85.70;;;;;;4961472;28;20774;-72
2022/06/07 08:07:21;;;;;;;2.90;2.20;;;20.00;85.80;;;;;;4971832;28;20458;-72
2022/06/07 08:09:47;;;;;;;2.60;2.40;;;20.00;86.50;;;;;;4940942;28;20443;-72
2022/06/07 08:12:13;;;;;;;2.87;2.30;;;20.10;85.80;;;;;;4956973;28;20410;-72
2022/06/07 08:14:39;;;;;;;2.60;1.70;;;20.10;85.80;;;;;;4956081;28;20469;-72
2022/06/07 08:17:05;;;;;;;2.83;2.00;;;20.10;85.80;;;;;;4976586;28;20417;-72
2022/06/07 08:19:31;;;;;;;2.10;1.80;;;20.10;85.70;;;;;;4968332;28;21015;-72
2022/06/07 08:21:59;;;;;;;3.13;2.13;;;20.10;85.60;;;;;;4957408;28;20432;-72
2022/06/07 08:24:26;;;;;;;3.77;2.00;;;20.20;85.70;;;;;;4956738;28;20431;-72
2022/06/07 08:26:54;;;;;;;2.90;2.03;;;20.20;85.60;;;;;;4957378;28;20440;-72
2022/06/07 08:29:20;;;;;;;2.43;2.00;;;20.20;85.50;;;;;;4962838;28;21035;-72
2022/06/07 08:31:49;;;;;;;3.90;2.23;;;20.20;85.40;;;;;;4993608;28;20443;-72
2022/06/07 08:39:47;;;;;;;3.83;1.90;;;20.20;85.10;;;;;;4965709;28;20471;-72
2022/06/07 08:42:47;;;;;;;2.33;2.13;;;20.20;85.10;;;;;;4948476;28;20448;-72
2022/06/07 08:45:18;;;;;;;3.53;2.40;;;20.30;85.10;;;;;;4948695;28;20435;-72
2022/06/07 08:47:44;;;;;;;2.00;1.80;;;20.20;85.00;;;;;;4955865;28;20806;-72
2022/06/07 08:50:23;;;;;;;4.37;1.73;;;20.30;85.10;;;;;;4959017;28;20514;-72
2022/06/07 08:52:56;;;;;;;2.30;2.10;;;20.30;85.10;;;;;;4975882;28;20457;-72
2022/06/07 08:55:25;;;;;;;2.83;2.20;;;20.30;85.10;;;;;;4970867;28;20487;-72
2022/06/07 08:58:02;;;;;;;4.00;2.70;;;20.30;85.10;;;;;;4973779;28;20407;-72
2022/06/07 09:00:35;;;;;;;2.20;1.80;;;20.30;85.10;;;;;;4956278;28;20480;-72
2022/06/07 09:03:22;;;;;;;2.50;2.23;;;20.40;85.10;;;;;;4956475;28;20483;-72
2022/06/07 09:05:53;;;;;;;4.00;2.00;;;20.40;85.20;;;;;;4956447;28;20431;-72
2022/06/07 09:08:20;;;;;;;3.27;2.17;;;20.40;85.10;;;;;;4956314;28;20756;-72
2022/06/07 09:13:36;;;;;;;3.50;2.20;;;20.40;85.10;;;;;;4953990;29;20416;-72
2022/06/07 09:16:03;;;;;;;3.43;1.97;;;20.40;85.10;;;;;;4954317;29;20423;-71
2022/06/07 09:18:33;;;;;;;2.27;1.93;;;20.40;85.00;;;;;;4937124;29;20443;-72
2022/06/07 09:21:11;;;;;;;2.43;2.00;;;20.40;84.90;;;;;;4936792;29;20463;-71
2022/06/07 09:23:44;;;;;;;2.13;1.80;;;20.40;84.90;;;;;;4936948;29;20462;-71
2022/06/07 09:26:32;;;;;;;3.33;2.20;;;20.40;84.80;;;;;;4955336;28;20456;-71
2022/06/07 09:29:13;;;;;;;3.27;2.10;;;20.50;84.90;;;;;;4939010;28;20458;-71
2022/06/07 09:31:44;;;;;;;4.13;2.50;;;20.50;85.00;;;;;;4955807;28;21047;-71
2022/06/07 09:34:18;;;;;;;3.97;2.33;;;20.50;85.00;;;;;;4956026;28;20538;-71
2022/06/07 09:36:49;;;;;;;3.60;2.10;;;20.50;84.90;;;;;;4973235;28;20520;-72
2022/06/07 09:39:27;;;;;;;3.93;2.10;;;20.50;84.90;;;;;;4955696;28;20861;-71
2022/06/07 09:42:00;;;;;;;3.03;2.10;;;20.50;84.90;;;;;;4955309;28;20444;-71
2022/06/07 09:44:36;;;;;;;2.93;2.07;;;20.50;84.90;;;;;;4955471;28;20935;-71
2022/06/07 09:47:11;;;;;;;1.97;1.83;;;20.60;85.00;;;;;;4956291;28;20667;-71
2022/06/07 09:49:45;;;;;;;2.60;2.03;;;20.60;85.00;;;;;;4955971;28;20977;-72
2022/06/07 09:52:14;;;;;;;2.53;1.90;;;20.60;85.10;;;;;;4972143;28;20514;-71
2022/06/07 09:54:45;;;;;;;2.17;2.00;;;20.60;85.20;;;;;;4972603;28;20460;-71
2022/06/07 09:57:32;;;;;;;3.07;2.30;;;20.70;85.40;;;;;;4972836;28;20399;-71
2022/06/07 10:00:06;;;;;;;3.00;2.07;;;20.70;85.40;;;;;;4955778;28;20448;-71
2022/06/07 10:03:03;;;;;;;3.60;2.20;;;20.70;85.50;;;;;;4940389;28;20446;-71
2022/06/07 10:05:33;;;;;;;6.20;2.20;;;20.80;85.70;;;;;;4955677;28;20480;-71
2022/06/07 10:08:22;;;;;;;2.73;2.17;;;20.70;85.60;;;;;;4972100;28;20448;-71
2022/06/07 10:10:59;;;;;;;2.20;1.77;;;20.80;85.80;;;;;;4937925;29;20468;-71
2022/06/07 10:13:46;;;;;;;4.00;1.83;;;20.80;85.80;;;;;;4955652;28;20433;-71
2022/06/07 10:16:30;;;;;;;2.30;2.10;;;20.80;85.80;;;;;;4972621;28;20812;-72
2022/06/07 10:19:25;;;;;;;2.30;2.10;;;20.90;86.00;;;;;;4955704;28;20408;-72
2022/06/07 10:22:03;;;;;;;3.90;2.13;;;20.90;86.10;;;;;;4972131;28;20550;-71
2022/06/07 10:24:50;;;;;;;5.60;2.03;;;20.90;86.20;;;;;;4972582;28;20475;-71
2022/06/07 10:27:51;;;;;;;2.20;1.90;;;21.00;86.40;;;;;;4954921;28;20471;-72
2022/06/07 10:30:31;;;;;;;3.70;2.13;;;21.00;86.50;;;;;;4955208;28;20448;-72
2022/06/07 10:33:06;;;;;;;6.53;1.83;;;21.00;86.60;;;;;;4939321;28;20412;-72
2022/06/07 10:35:41;;;;;;;2.83;1.93;;;21.00;86.50;;;;;;4939163;28;20469;-71
2022/06/07 10:38:26;;;;;;;1.93;1.77;;;21.10;86.50;;;;;;4954681;28;20528;-72
2022/06/07 10:40:52;;;;;;;4.60;1.80;;;21.10;86.40;;;;;;4955046;28;20433;-71
2022/06/07 10:43:21;;;;;;;2.07;1.90;;;21.10;86.20;;;;;;4954897;28;20429;-73
2022/06/07 10:45:54;;;;;;;3.47;2.33;;;21.20;86.30;;;;;;4951602;29;20463;-71
2022/06/07 10:48:40;;;;;;;2.93;1.80;;;21.20;86.20;;;;;;4935764;29;20417;-71
2022/06/07 10:54:55;;;;;;;2.30;1.70;;;21.20;86.20;;;;;;4950430;29;20564;-72
2022/06/07 10:57:33;;;;;;;4.40;2.37;;;21.20;86.10;;;;;;4912462;29;20421;-72
2022/06/07 11:00:33;;;;;;;5.50;2.10;;;21.30;86.30;;;;;;4939196;28;20544;-71
2022/06/07 11:03:23;;;;;;;4.10;2.07;;;21.30;86.30;;;;;;4923280;29;20479;-72
2022/06/07 11:09:19;;;;;;;2.53;1.77;;;21.40;86.40;;;;;;4939179;29;20452;-71
2022/06/07 11:11:52;;;;;;;5.23;2.10;;;21.40;86.50;;;;;;4955939;28;20482;-72
2022/06/07 11:14:23;;;;;;;2.03;1.70;;;21.40;86.40;;;;;;4946411;28;20482;-71
2022/06/07 11:17:18;;;;;;;3.60;1.90;;;21.40;86.30;;;;;;4975426;28;20413;-72
2022/06/07 11:19:44;;;;;;;2.90;1.70;;;21.40;86.30;;;;;;4957942;28;20413;-71
2022/06/07 11:22:18;;;;;;;5.00;1.67;;;21.50;86.50;;;;;;4938255;29;20798;-71
2022/06/07 11:24:56;;;;;;;3.70;1.90;;;21.50;86.50;;;;;;4955959;29;20446;-71
2022/06/07 11:27:24;;;;;;;2.23;1.70;;;21.50;86.50;;;;;;4938858;29;20445;-72
2022/06/07 11:30:29;;;;;;;4.03;2.30;;;21.50;86.40;;;;;;4955648;28;20443;-71
2022/06/07 11:32:59;;;;;;;2.27;1.50;;;21.50;86.30;;;;;;4938330;29;20487;-71
2022/06/07 11:35:44;;;;;;;4.50;2.30;;;21.60;86.40;;;;;;4922761;29;20465;-71
2022/06/07 11:38:22;;;;;;;3.50;1.83;;;21.60;86.40;;;;;;4955723;29;20766;-72
2022/06/07 11:41:36;;;;;;;1.80;1.70;;;21.60;86.40;;;;;;4938447;29;20453;-71
2022/06/07 11:43:52;;;;;;;5.30;1.60;;;21.60;86.40;;;;;;4922522;29;20421;-72
2022/06/07 11:46:26;;;;;;;1.80;1.70;;;21.70;86.50;;;;;;4955580;29;20398;-72
2022/06/07 11:48:53;;;;;;;2.47;1.83;;;21.70;86.50;;;;;;4955234;29;20406;-71
2022/06/07 11:51:21;;;;;;;2.17;1.60;;;21.70;86.50;;;;;;4947370;28;20969;-71
2022/06/07 11:54:03;;;;;;;2.27;1.63;;;21.70;86.50;;;;;;4957632;28;20879;-71
2022/06/07 11:56:43;;;;;;;1.87;1.77;;;21.70;86.40;;;;;;4957354;28;20439;-71
2022/06/07 11:59:20;;;;;;;2.93;1.80;;;21.70;86.40;;;;;;4925667;28;20417;-72
2022/06/07 12:01:47;;;;;;;2.20;1.60;;;21.80;86.20;;;;;;4974454;28;20535;-72
2022/06/07 12:04:44;;;;;;;2.57;1.67;;;21.80;86.30;;;;;;4974672;28;20424;-72
2022/06/07 12:07:29;;;;;;;1.80;1.70;;;21.80;86.30;;;;;;4974067;28;20464;-72
2022/06/07 12:10:19;;;;;;;2.17;1.70;;;21.90;86.50;;;;;;4956967;28;20912;-71
2022/06/07 12:12:56;;;;;;;4.63;1.80;;;21.80;86.40;;;;;;4957228;28;20449;-71
2022/06/07 12:15:42;;;;;;;1.60;1.50;;;21.90;86.50;;;;;;4940871;28;20462;-71
2022/06/07 12:18:27;;;;;;;3.27;2.10;;;21.90;87.30;;;;;;4974222;28;20432;-72
2022/06/07 12:21:14;;;;;;;1.87;1.77;;;21.90;86.50;;;;;;4937802;29;20450;-71
2022/06/07 12:23:46;;;;;;;3.17;2.10;;;21.90;86.50;;;;;;4922271;29;21019;-71
2022/06/07 12:26:18;;;;;;;2.03;1.90;;;21.90;86.50;;;;;;4964361;28;20468;-72
2022/06/07 12:28:55;;;;;;;1.70;1.60;;;21.90;86.50;;;;;;4956771;28;20673;-71
2022/06/07 12:31:57;;;;;;;2.07;1.87;;;22.00;86.50;;;;;;4973854;28;20521;-72
2022/06/07 12:34:44;;;;;;;1.70;1.60;;;22.00;86.60;;;;;;4956979;28;20805;-71
2022/06/07 12:37:10;;;;;;;3.10;2.10;;;22.00;86.50;;;;;;4937096;29;20434;-71
2022/06/07 12:39:57;;;;;;;2.37;1.73;;;22.00;86.60;;;;;;4936933;29;20987;-71
2022/06/07 12:42:27;;;;;;;2.57;1.57;;;22.10;86.50;;;;;;4936955;29;20422;-71
2022/06/07 12:44:53;;;;;;;2.07;1.63;;;22.00;87.00;;;;;;4936903;29;20443;-71
2022/06/07 12:47:26;;;;;;;2.10;1.50;;;22.00;85.90;;;;;;4937034;29;20514;-71
2022/06/07 12:49:54;;;;;;;3.83;1.57;;;22.00;85.50;;;;;;4954408;28;20414;-71
2022/06/07 12:52:26;;;;;;;2.70;1.47;;;22.00;85.40;;;;;;4921501;29;20533;-71
2022/06/07 12:55:13;;;;;;;3.93;2.17;;;22.00;85.30;;;;;;4937089;29;20496;-71
2022/06/07 12:57:47;;;;;;;3.37;1.50;;;22.00;85.20;;;;;;4905573;29;20453;-71
2022/06/07 13:00:25;;;;;;;1.30;1.20;;;22.00;85.30;;;;;;4937510;29;20442;-72
2022/06/07 13:03:28;;;;;;;1.43;1.33;;;22.00;85.40;;;;;;4937179;29;20860;-71
2022/06/07 13:06:20;;;;;;;1.73;1.30;;;22.00;86.00;;;;;;4953356;28;20477;-71
2022/06/07 13:08:58;;;;;;;2.20;1.80;;;22.00;86.10;;;;;;4949557;28;20966;-71
2022/06/07 13:11:37;;;;;;;1.80;1.50;;;22.00;86.50;;;;;;4955560;28;20454;-71
2022/06/07 13:14:06;;;;;;;1.70;1.60;;;22.00;87.00;;;;;;4953779;29;20454;-71
2022/06/07 13:16:42;;;;;;;3.33;1.43;;;22.00;87.30;;;;;;4953895;29;20419;-71
2022/06/07 13:19:17;;;;;;;1.77;1.20;;;22.00;87.20;;;;;;4921593;29;20399;-71
2022/06/07 13:22:11;;;;;;;1.50;1.40;;;22.00;87.40;;;;;;4953651;28;20517;-71
2022/06/07 13:24:47;;;;;;;3.57;1.40;;;22.00;87.70;;;;;;4953626;29;20415;-71
2022/06/07 13:27:31;;;;;;;2.73;1.90;;;22.00;88.20;;;;;;4936567;29;20442;-71
2022/06/07 13:30:03;;;;;;;3.93;1.50;;;22.00;89.20;;;;;;4953615;28;20473;-71
2022/06/07 13:32:29;;;;;;;2.60;1.50;;;22.00;88.50;;;;;;4920871;29;20938;-71
2022/06/07 13:35:03;;;;;;;3.37;1.80;;;22.00;88.90;;;;;;4920335;29;20474;-72
2022/06/07 13:37:32;;;;;;;2.00;1.90;;;22.00;89.10;;;;;;4935975;29;20454;-72
2022/06/07 13:40:23;;;;;;;1.57;1.40;;;22.00;89.20;;;;;;4920557;28;20411;-71
2022/06/07 13:43:16;;;;;;;1.90;1.70;;;22.00;89.30;;;;;;4964521;28;20435;-71
2022/06/07 13:45:46;;;;;;;2.70;1.93;;;22.00;89.10;;;;;;4955263;28;20494;-71
2022/06/07 13:54:25;;;;;;;1.73;1.63;;;22.00;90.20;;;;;;4955269;28;20469;-71